Bonds Corner, California
Current Conditions -  °F | °C
As of 4:41 PM on Thursday 27 Nov 2014 (Local Time) from MMML Reporting Station
Few Clouds Few Clouds  
Wind Chill: 75°   Ceiling: Unl
Heat Index: 75°   Visibility: 10mi
Dew Point: 32°   Wind: 6mph
Humidity: 21%   Direction: 290°WNW
Pressure: 30.04"   Gusts: NA
Location:  32.7753°N, 115.299°W
Report Text: MMML 280041Z 29005KT 10SM FEW200 24/00 A3004 RMK 8/002
Loading
Personal Weather Stations






























Interactive Weather Map New forecast layout! Learn more

10-Day Weather Forecast

Advertisements
Track Severe Weather on mobile